EA7CL Malaga ES current weather conditions

sailwx.info

Wind from 180 at 0 knots gusting 3

Air temperature 25.0° C
Dewpoint 21.3° C

Last reported at 2019-Jul-22 01:05 UTC.
Time now 2019-Jul-22 01:52 UTC

Location: N 36°44' W 004°27'.
View on Google Maps.

See reports from other nearby stations

  
Tides and Currents Weather Stations Pressure Air Temp Water Temp Dewpoint Dewpoint Depression Visibility Wind Speed Wind Dir Waves Ship Positions
date/time (UTC)wind fromknots sea level pressurealtimeterstation pressurevisibilityair tempwater tempwave heightnotes
2019-Jul-22 01:05 180 0 gusting 3 25.0
2019-Jul-22 00:55 243 3 gusting 6 25.0
2019-Jul-22 00:45 238 4 gusting 7 25.0
2019-Jul-22 00:35 242 5 gusting 7 25.6
2019-Jul-22 00:25 264 5 gusting 7 25.6
2019-Jul-22 00:15 264 4 gusting 7 25.6
2019-Jul-22 00:05 255 3 gusting 7 25.6
2019-Jul-21 23:55 276 1 gusting 6 25.6
2019-Jul-21 23:45 295 3 gusting 6 25.6
2019-Jul-21 23:35 281 3 gusting 7 25.6
2019-Jul-21 23:25 241 0 gusting 3 25.6
2019-Jul-21 23:15 012 25.6
2019-Jul-21 23:05 223 25.0
2019-Jul-21 22:55 023 0 gusting 6 25.0
2019-Jul-21 22:45 018 0 gusting 3 25.0
2019-Jul-21 22:35 005 2 gusting 6 25.0
2019-Jul-21 22:25 020 2 gusting 6 25.0
2019-Jul-21 22:15 143 0 gusting 3 25.0
2019-Jul-21 22:05 25.0
2019-Jul-21 21:55 084 25.0
2019-Jul-21 21:45 139 25.0
2019-Jul-21 21:35 205 25.0
2019-Jul-21 21:25 134 0 gusting 3 25.0
2019-Jul-21 21:15 151 0 gusting 3 25.0
2019-Jul-21 21:05 183 0 gusting 3 25.0
2019-Jul-21 20:55 171 0 gusting 6 25.0
2019-Jul-21 20:45 172 0 gusting 3 25.0
2019-Jul-21 20:35 154 25.0
2019-Jul-21 20:25 137 2 gusting 6 25.0
2019-Jul-21 20:15 136 3 gusting 10 25.0
2019-Jul-21 20:05 144 5 gusting 10 25.0
2019-Jul-21 19:55 145 1 gusting 6 25.0
2019-Jul-21 19:45 125 1 gusting 6 25.0
2019-Jul-21 19:35 122 3 gusting 7 25.0
2019-Jul-21 19:25 126 4 gusting 10 25.0
2019-Jul-21 19:15 113 2 gusting 6 25.6
2019-Jul-21 19:05 116 4 gusting 10 25.6
2019-Jul-21 18:55 122 2 gusting 10 26.1
2019-Jul-21 18:45 122 3 gusting 7 26.1
2019-Jul-21 18:35 113 2 gusting 6 26.7
2019-Jul-21 18:25 141 5 gusting 7 26.7
2019-Jul-21 18:15 150 3 gusting 10 26.7
2019-Jul-21 18:05 152 2 gusting 7 26.7
2019-Jul-21 17:55 137 4 gusting 7 27.2
2019-Jul-21 17:45 167 4 gusting 10 27.2
2019-Jul-21 17:35 152 3 gusting 7 27.2
2019-Jul-21 17:25 140 1 gusting 6 26.7
2019-Jul-21 17:15 160 5 gusting 12 26.7
2019-Jul-21 17:05 145 5 gusting 10 26.7
2019-Jul-21 16:55 163 4 gusting 10 26.7
2019-Jul-21 16:45 150 6 gusting 12 26.7
2019-Jul-21 16:35 147 5 gusting 12 26.7
2019-Jul-21 16:25 146 6 gusting 12 26.7
2019-Jul-21 16:15 131 6 gusting 12 26.7
2019-Jul-21 16:05 147 8 gusting 14 27.2
2019-Jul-21 15:55 149 7 gusting 14 27.2
2019-Jul-21 15:45 171 4 gusting 10 27.2
2019-Jul-21 15:35 142 3 gusting 10 27.2
2019-Jul-21 15:25 153 5 gusting 12 27.2
2019-Jul-21 15:15 142 4 gusting 10 27.2
2019-Jul-21 15:05 145 7 gusting 12 27.2
2019-Jul-21 14:55 149 2 gusting 7 26.7
2019-Jul-21 14:45 154 7 gusting 12 26.7
2019-Jul-21 14:35 145 8 gusting 14 26.7
2019-Jul-21 14:25 143 6 gusting 12 26.7
2019-Jul-21 14:15 158 8 gusting 14 27.2
2019-Jul-21 14:05 160 7 gusting 14 27.2
2019-Jul-21 13:55 163 5 gusting 10 27.2
2019-Jul-21 13:45 157 3 gusting 10 26.7
2019-Jul-21 13:35 157 5 gusting 10 26.7
2019-Jul-21 13:25 150 8 gusting 16 26.7
2019-Jul-21 13:15 136 6 gusting 12 27.2
2019-Jul-21 13:05 110 3 gusting 10 26.7
2019-Jul-21 12:55 136 5 gusting 10 26.7
2019-Jul-21 12:45 135 4 gusting 12 26.7
2019-Jul-21 12:35 132 6 gusting 12 26.7
2019-Jul-21 12:25 125 6 gusting 14 26.7
2019-Jul-21 12:15 149 6 gusting 12 26.7
2019-Jul-21 12:05 140 8 gusting 14 26.7
2019-Jul-21 11:55 152 5 gusting 12 26.7
2019-Jul-21 11:45 150 6 gusting 14 26.7
2019-Jul-21 11:35 154 6 gusting 12 26.1
2019-Jul-21 11:25 138 7 gusting 12 26.1
2019-Jul-21 11:15 138 6 gusting 14 26.1
2019-Jul-21 11:05 142 7 gusting 12 26.7
2019-Jul-21 10:55 154 7 gusting 12 26.7
2019-Jul-21 10:45 150 6 gusting 10 26.7
2019-Jul-21 10:35 144 2 gusting 7 26.7
2019-Jul-21 10:25 117 6 gusting 12 26.7
2019-Jul-21 10:15 108 5 gusting 12 26.7
2019-Jul-21 10:05 116 6 gusting 12 27.2
2019-Jul-21 09:55 125 3 gusting 7 27.2
2019-Jul-21 09:45 128 3 gusting 7 27.2
2019-Jul-21 09:35 120 4 gusting 10 27.2
2019-Jul-21 09:25 110 2 gusting 10 27.2
2019-Jul-21 09:15 113 4 gusting 7 26.7
2019-Jul-21 09:05 124 1 gusting 6 26.7
2019-Jul-21 08:55 109 3 gusting 7 26.7
2019-Jul-21 08:45 143 4 gusting 10 26.7
2019-Jul-21 08:35 120 4 gusting 7 26.1
2019-Jul-21 08:25 100 1 gusting 7 26.1
2019-Jul-21 08:15 112 3 gusting 6 26.1
2019-Jul-21 08:05 117 1 gusting 6 26.1
2019-Jul-21 07:55 103 1 gusting 6 25.6
2019-Jul-21 07:45 078 3 gusting 7 25.6
2019-Jul-21 07:35 088 3 gusting 7 25.0
2019-Jul-21 07:25 086 4 gusting 7 25.0
2019-Jul-21 07:15 101 4 gusting 10 25.0
2019-Jul-21 07:05 086 3 gusting 10 24.4
2019-Jul-21 06:55 113 4 gusting 12 23.9
2019-Jul-21 06:45 091 6 gusting 12 23.9
2019-Jul-21 06:35 089 5 gusting 10 23.3
2019-Jul-21 06:25 079 4 gusting 10 23.3
2019-Jul-21 06:15 102 2 gusting 7 23.3
2019-Jul-21 06:05 096 4 gusting 10 23.3
2019-Jul-21 05:55 086 5 gusting 12 23.3
2019-Jul-21 05:45 094 4 gusting 7 23.9
2019-Jul-21 05:35 121 3 gusting 7 23.9
2019-Jul-21 05:25 109 3 gusting 10 24.4
2019-Jul-21 05:15 114 0 gusting 3 24.4
2019-Jul-21 05:05 24.4
2019-Jul-21 04:55 300 24.4
2019-Jul-21 04:45 269 1 gusting 6 24.4
2019-Jul-21 04:35 246 1 gusting 3 24.4
2019-Jul-21 04:25 283 2 gusting 6 24.4
2019-Jul-21 04:15 277 4 gusting 6 24.4
2019-Jul-21 04:05 256 2 gusting 6 24.4
2019-Jul-21 03:55 279 4 gusting 10 25.0
2019-Jul-21 03:45 298 2 gusting 6 25.0
2019-Jul-21 03:35 281 1 gusting 6 25.0
2019-Jul-21 03:25 258 3 gusting 6 25.0
2019-Jul-21 03:15 230 0 gusting 3 25.0
2019-Jul-21 03:05 186 25.0
2019-Jul-21 02:55 192 25.0
2019-Jul-21 02:45 25.0
2019-Jul-21 02:35 241 25.0
2019-Jul-21 02:25 278 0 gusting 1 25.0
2019-Jul-21 02:15 297 2 gusting 6 25.0
2019-Jul-21 02:05 288 3 gusting 6 25.6
2019-Jul-21 01:55 247 0 gusting 3 25.6
2019-Jul-21 01:45 240 1 gusting 3 25.6
2019-Jul-21 01:35 265 2 gusting 6 25.6
2019-Jul-21 01:25 268 3 gusting 6 25.6
2019-Jul-21 01:15 278 3 gusting 6 25.6
2019-Jul-21 01:05 265 1 gusting 3 25.6
2019-Jul-21 00:55 241 2 gusting 6 25.6
2019-Jul-21 00:45 263 25.6
2019-Jul-21 00:35 300 1 gusting 6 25.6
2019-Jul-21 00:25 282 25.6
2019-Jul-21 00:15 244 0 gusting 3 25.6
2019-Jul-21 00:05 296 0 gusting 3 25.6
2019-Jul-20 23:55 273 0 gusting 3 25.6
2019-Jul-20 23:45 285 4 gusting 6 25.6
2019-Jul-20 23:35 280 3 gusting 6 26.1
2019-Jul-20 23:25 259 2 gusting 6 26.1
2019-Jul-20 23:15 272 2 gusting 6 26.1
2019-Jul-20 23:05 249 25.6
2019-Jul-20 22:55 021 1 gusting 3 25.6
2019-Jul-20 22:45 009 0 gusting 6 25.6
2019-Jul-20 22:35 029 2 gusting 6 25.6
2019-Jul-20 22:25 062 25.6
2019-Jul-20 22:15 047 4 gusting 7 25.6
2019-Jul-20 22:05 051 2 gusting 7 25.6
2019-Jul-20 21:55 051 6 gusting 12 25.6
2019-Jul-20 21:45 062 2 gusting 6 25.6
2019-Jul-20 21:35 072 4 gusting 7 25.6
2019-Jul-20 21:25 074 0 gusting 6 25.6
2019-Jul-20 21:15 066 1 gusting 6 25.6
2019-Jul-20 21:05 092 1 gusting 3 25.6
2019-Jul-20 20:55 090 1 gusting 6 25.6
2019-Jul-20 20:45 105 1 gusting 7 25.6
2019-Jul-20 20:35 080 2 gusting 7 25.6
2019-Jul-20 20:25 068 3 gusting 7 25.6
2019-Jul-20 20:15 093 4 gusting 7 25.6
2019-Jul-20 20:05 103 1 gusting 7 25.6
2019-Jul-20 19:55 105 4 gusting 7 25.6
2019-Jul-20 19:45 105 2 gusting 6 25.6
2019-Jul-20 19:35 117 2 gusting 12 25.6
2019-Jul-20 19:25 111 5 gusting 7 25.6
2019-Jul-20 19:15 127 6 gusting 14 25.6
2019-Jul-20 19:05 124 4 gusting 7 26.1
2019-Jul-20 18:55 131 4 gusting 7 26.1
2019-Jul-20 18:45 123 4 gusting 7 26.7
2019-Jul-20 18:35 102 1 gusting 6 26.7
2019-Jul-20 18:25 134 1 gusting 6 26.7
2019-Jul-20 18:15 112 1 gusting 6 26.7
2019-Jul-20 18:05 102 4 gusting 10 26.7
2019-Jul-20 17:55 124 3 gusting 7 27.2
2019-Jul-20 17:45 116 3 gusting 7 27.2
2019-Jul-20 17:35 142 1 gusting 6 27.2
2019-Jul-20 17:25 114 1 gusting 6 27.2
2019-Jul-20 17:15 141 4 gusting 12 27.2
2019-Jul-20 17:05 154 5 gusting 10 27.2
2019-Jul-20 16:55 143 5 gusting 10 27.2
2019-Jul-20 16:45 152 5 gusting 10 27.8
2019-Jul-20 16:35 103 3 gusting 10 27.8
2019-Jul-20 16:25 122 4 gusting 10 27.8
2019-Jul-20 16:15 109 2 gusting 7 27.8
2019-Jul-20 16:05 120 3 gusting 7 27.8
2019-Jul-20 15:55 121 4 gusting 10 27.8
2019-Jul-20 15:45 098 4 gusting 7 27.8
2019-Jul-20 15:35 122 4 gusting 10 27.2
2019-Jul-20 15:25 128 2 gusting 7 27.2
2019-Jul-20 15:15 111 5 gusting 10 26.7
2019-Jul-20 15:05 126 6 gusting 12 27.2
2019-Jul-20 14:55 117 6 gusting 12 27.2
2019-Jul-20 14:45 130 6 gusting 14 27.2
2019-Jul-20 14:35 103 5 gusting 12 27.2
2019-Jul-20 14:25 103 5 gusting 12 27.2
2019-Jul-20 14:15 095 4 gusting 10 26.7
2019-Jul-20 14:05 120 5 gusting 14 26.7
2019-Jul-20 13:55 112 6 gusting 16 26.7
2019-Jul-20 13:45 119 8 gusting 14 26.7
2019-Jul-20 13:35 127 5 gusting 14 26.7
2019-Jul-20 13:25 112 5 gusting 14 26.7
2019-Jul-20 13:15 110 5 gusting 10 26.7
2019-Jul-20 13:05 111 6 gusting 14 27.2
2019-Jul-20 12:55 112 7 gusting 16 27.2
2019-Jul-20 12:45 098 5 gusting 12 27.2
2019-Jul-20 12:35 111 6 gusting 14 27.2
2019-Jul-20 12:25 095 5 gusting 10 27.2
2019-Jul-20 12:15 109 5 gusting 12 27.2
2019-Jul-20 12:05 121 6 gusting 19 26.7
2019-Jul-20 11:55 103 6 gusting 14 26.7
2019-Jul-20 11:45 110 6 gusting 14 26.7
2019-Jul-20 11:35 098 4 gusting 12 26.7
2019-Jul-20 11:25 101 5 gusting 12 26.7
2019-Jul-20 11:15 113 4 gusting 10 26.1
2019-Jul-20 11:05 108 3 gusting 7 26.1
2019-Jul-20 10:55 097 4 gusting 10 26.1
2019-Jul-20 10:45 108 3 gusting 10 26.1
2019-Jul-20 10:35 102 3 gusting 7 25.6
2019-Jul-20 10:25 094 2 gusting 7 25.6
2019-Jul-20 10:15 120 3 gusting 7 26.1
2019-Jul-20 10:05 089 3 gusting 7 26.7
2019-Jul-20 09:55 100 4 gusting 7 27.2
2019-Jul-20 09:45 106 3 gusting 10 27.2
2019-Jul-20 09:35 081 2 gusting 7 27.8
2019-Jul-20 09:25 114 5 gusting 7 27.8
2019-Jul-20 09:15 115 3 gusting 7 27.8
2019-Jul-20 09:05 136 2 gusting 6 27.8
2019-Jul-20 08:55 142 0 gusting 6 27.8
2019-Jul-20 08:45 101 2 gusting 6 27.2
2019-Jul-20 08:35 130 2 gusting 7 27.2
2019-Jul-20 08:25 104 1 gusting 6 26.7
2019-Jul-20 08:15 124 4 gusting 7 27.2
2019-Jul-20 08:05 098 1 gusting 3 27.2
2019-Jul-20 07:55 100 0 gusting 3 27.8
2019-Jul-20 07:45 127 0 gusting 3 27.8
2019-Jul-20 07:35 161 27.2
2019-Jul-20 07:25 171 26.1
2019-Jul-20 07:15 167 25.6
2019-Jul-20 07:05 270 0 gusting 3 25.0
2019-Jul-20 06:55 226 25.0
2019-Jul-20 06:45 224 1 gusting 3 24.4
2019-Jul-20 06:35 279 1 gusting 6 24.4
2019-Jul-20 06:25 240 24.4
2019-Jul-20 06:15 239 1 gusting 6 23.9
2019-Jul-20 06:05 264 1 gusting 3 23.9
2019-Jul-20 05:55 247 23.9
2019-Jul-20 05:45 285 4 gusting 6 23.9
2019-Jul-20 05:35 286 5 gusting 10 23.9
2019-Jul-20 05:25 259 2 gusting 6 24.4
2019-Jul-20 05:15 270 2 gusting 3 24.4
2019-Jul-20 05:05 263 3 gusting 6 24.4
2019-Jul-20 04:55 269 3 gusting 7 24.4
2019-Jul-20 04:45 281 6 gusting 7 24.4
2019-Jul-20 04:35 270 3 gusting 6 24.4
2019-Jul-20 04:25 253 1 gusting 3 24.4
2019-Jul-20 04:15 299 2 gusting 6 24.4
2019-Jul-20 04:05 257 4 gusting 7 23.9
2019-Jul-20 03:55 239 2 gusting 6 23.9
2019-Jul-20 03:45 23.9
2019-Jul-20 03:35 23.9
2019-Jul-20 03:25 23.9
2019-Jul-20 03:15 275 1 gusting 3 24.4
2019-Jul-20 03:05 24.4
2019-Jul-20 02:55 24.4
2019-Jul-20 02:45 24.4
2019-Jul-20 02:35 24.4
2019-Jul-20 02:25 24.4
2019-Jul-20 02:15 335 24.4
2019-Jul-20 02:05 24.4
2019-Jul-20 01:55 24.4
2019-Jul-20 01:45 097 24.4
2019-Jul-20 01:35 24.4
2019-Jul-20 01:25 043 0 gusting 3 24.4
2019-Jul-20 01:15 047 0 gusting 3 24.4
2019-Jul-20 01:05 024 24.4